createdAt,value
2018-07-09T00:01:15.572Z,13.67
2018-07-09T00:03:45.507Z,13.66
2018-07-09T00:06:15.564Z,13.64
2018-07-09T00:08:45.185Z,13.66
2018-07-09T00:11:15.801Z,13.61
2018-07-09T00:13:46.657Z,13.53
2018-07-09T00:16:16.606Z,13.48
2018-07-09T00:18:46.903Z,13.53
2018-07-09T00:21:16.494Z,13.47
2018-07-09T00:23:46.953Z,13.38
2018-07-09T00:26:16.432Z,13.39
2018-07-09T00:28:48.161Z,13.33
2018-07-09T00:31:17.298Z,13.29
2018-07-09T00:33:47.930Z,13.28
2018-07-09T00:36:17.471Z,13.27
2018-07-09T00:38:47.324Z,13.25
2018-07-09T00:41:18.291Z,13.25
2018-07-09T00:43:49.070Z,13.21
2018-07-09T00:46:18.621Z,13.16
2018-07-09T00:48:50.336Z,13.12
2018-07-09T00:51:21.065Z,13.10
2018-07-09T00:53:52.042Z,13.11
2018-07-09T00:56:21.317Z,13.07
2018-07-09T00:58:51.046Z,13.03
2018-07-09T01:01:20.829Z,12.98
2018-07-09T01:03:50.307Z,12.95
2018-07-09T01:06:19.903Z,12.91
2018-07-09T01:08:49.562Z,12.88
2018-07-09T01:11:36.066Z,12.89
2018-07-09T01:14:06.067Z,12.94
2018-07-09T01:16:35.568Z,12.86
2018-07-09T01:19:05.092Z,12.87
2018-07-09T01:21:34.598Z,12.91
2018-07-09T01:24:04.293Z,12.87
2018-07-09T01:26:33.743Z,12.87
2018-07-09T01:29:02.895Z,12.86
2018-07-09T01:31:32.424Z,12.85
2018-07-09T01:34:01.906Z,12.84
2018-07-09T01:36:31.305Z,12.80
2018-07-09T01:39:01.033Z,12.84
2018-07-09T01:41:30.510Z,12.78
2018-07-09T01:43:59.969Z,12.83
2018-07-09T01:46:29.549Z,12.78
2018-07-09T01:48:59.057Z,12.72
2018-07-09T01:51:28.476Z,12.73
2018-07-09T01:53:57.934Z,12.72
2018-07-09T01:56:27.525Z,12.70
2018-07-09T01:58:57.086Z,12.67
2018-07-09T02:01:26.709Z,12.62
2018-07-09T02:05:25.226Z,12.68
2018-07-09T02:07:54.368Z,12.64
2018-07-09T02:10:23.867Z,12.64
2018-07-09T02:12:53.367Z,12.70
2018-07-09T02:15:22.995Z,12.68
2018-07-09T02:17:52.521Z,12.64
2018-07-09T02:20:22.024Z,12.60
2018-07-09T02:22:51.494Z,12.62
2018-07-09T02:25:21.240Z,12.65
2018-07-09T02:27:50.825Z,12.61
2018-07-09T02:30:20.288Z,12.59
2018-07-09T02:32:49.586Z,12.62
2018-07-09T02:35:18.929Z,12.62
2018-07-09T02:37:48.559Z,12.67
2018-07-09T02:40:18.070Z,12.71
2018-07-09T02:42:48.080Z,12.74
2018-07-09T02:45:17.515Z,12.71
2018-07-09T02:47:46.991Z,12.67
2018-07-09T02:50:16.490Z,12.72
2018-07-09T02:52:46.010Z,12.67
2018-07-09T02:55:15.740Z,12.75
2018-07-09T02:57:45.418Z,12.76
2018-07-09T03:00:14.975Z,12.82
2018-07-09T03:02:44.148Z,12.79
2018-07-09T03:05:13.583Z,12.80
2018-07-09T03:07:42.945Z,12.84
2018-07-09T03:10:12.667Z,12.85
2018-07-09T03:12:42.272Z,12.79
2018-07-09T03:15:11.885Z,12.86
2018-07-09T03:17:41.410Z,12.84
2018-07-09T03:20:10.629Z,12.80
2018-07-09T03:22:40.073Z,12.78
2018-07-09T03:25:09.629Z,12.76
2018-07-09T03:27:39.033Z,12.83
2018-07-09T03:30:09.201Z,12.89
2018-07-09T03:32:38.842Z,12.88
2018-07-09T03:35:08.273Z,12.91
2018-07-09T03:37:37.496Z,13.02
2018-07-09T03:40:07.529Z,13.11
2018-07-09T03:42:37.029Z,13.15
2018-07-09T03:45:06.579Z,13.22
2018-07-09T03:47:36.065Z,13.36
2018-07-09T03:50:05.697Z,13.43
2018-07-09T03:52:35.091Z,13.52
2018-07-09T03:55:04.838Z,13.57
2018-07-09T03:57:34.109Z,13.67
2018-07-09T04:00:03.796Z,13.75
2018-07-09T04:02:33.380Z,13.76
2018-07-09T04:05:02.930Z,13.81
2018-07-09T04:07:32.472Z,13.94
2018-07-09T04:10:01.718Z,14.00
2018-07-09T04:12:31.230Z,14.00
2018-07-09T04:15:00.872Z,14.09
2018-07-09T04:17:30.801Z,14.14
2018-07-09T04:20:00.216Z,14.25
2018-07-09T04:22:29.368Z,14.30
2018-07-09T04:24:59.267Z,14.36
2018-07-09T04:27:29.097Z,14.47
2018-07-09T04:29:58.849Z,14.45
2018-07-09T04:32:28.529Z,14.35
2018-07-09T04:34:58.120Z,14.35
2018-07-09T04:37:27.869Z,14.43
2018-07-09T04:40:01.894Z,14.53
2018-07-09T04:42:31.900Z,14.54
2018-07-09T04:45:01.210Z,14.57
2018-07-09T04:47:30.377Z,14.63
2018-07-09T04:50:02.449Z,14.71
2018-07-09T04:52:32.242Z,14.69
2018-07-09T04:55:02.044Z,14.76
2018-07-09T04:57:31.673Z,14.81
2018-07-09T05:00:02.115Z,14.85
2018-07-09T05:02:31.553Z,15.01
2018-07-09T05:05:00.817Z,14.99
2018-07-09T05:07:30.750Z,15.09
2018-07-09T05:10:00.213Z,15.08
2018-07-09T05:12:29.758Z,15.16
2018-07-09T05:14:59.094Z,15.18
2018-07-09T05:17:28.642Z,15.22
2018-07-09T05:19:58.269Z,15.27
2018-07-09T05:22:27.920Z,15.18
2018-07-09T05:24:58.646Z,15.17
2018-07-09T05:27:27.908Z,15.28
2018-07-09T05:29:57.508Z,15.36
2018-07-09T05:32:28.517Z,15.42
2018-07-09T05:34:58.055Z,15.48
2018-07-09T05:37:27.599Z,15.52
2018-07-09T05:39:57.006Z,15.53
2018-07-09T05:42:26.452Z,15.59
2018-07-09T05:44:56.025Z,15.70
2018-07-09T05:47:25.687Z,15.82
2018-07-09T05:49:55.683Z,15.82
2018-07-09T05:52:25.261Z,15.87
2018-07-09T05:54:54.661Z,15.92
2018-07-09T05:57:24.353Z,16.07
2018-07-09T05:59:53.801Z,16.02
2018-07-09T06:02:23.470Z,16.11
2018-07-09T06:04:53.890Z,16.15
2018-07-09T06:07:23.306Z,16.26
2018-07-09T06:09:53.004Z,16.31
2018-07-09T06:12:22.489Z,16.35
2018-07-09T06:14:52.001Z,16.41
2018-07-09T06:17:21.640Z,16.43
2018-07-09T06:19:51.078Z,16.50
2018-07-09T06:22:20.586Z,16.57
2018-07-09T06:24:50.852Z,16.67
2018-07-09T06:27:20.382Z,16.77
2018-07-09T06:29:49.989Z,16.85
2018-07-09T06:32:19.595Z,16.94
2018-07-09T06:34:49.175Z,16.91
2018-07-09T06:37:18.699Z,16.90
2018-07-09T06:39:48.192Z,17.00
2018-07-09T06:42:17.717Z,17.04
2018-07-09T06:44:47.309Z,17.21
2018-07-09T06:47:16.927Z,17.24
2018-07-09T06:49:46.394Z,17.17
2018-07-09T06:52:16.017Z,17.07
2018-07-09T06:54:45.826Z,17.06
2018-07-09T06:57:15.424Z,16.98
2018-07-09T06:59:45.113Z,16.91
2018-07-09T07:02:14.702Z,16.82
2018-07-09T07:04:44.170Z,16.79
2018-07-09T07:07:14.315Z,16.81
2018-07-09T07:09:43.793Z,16.95
2018-07-09T07:12:13.406Z,17.00
2018-07-09T07:14:42.928Z,16.98
2018-07-09T07:17:12.468Z,16.96
2018-07-09T07:19:41.834Z,17.04
2018-07-09T07:22:11.356Z,17.22
2018-07-09T07:24:40.854Z,17.44
2018-07-09T07:27:10.337Z,17.48
2018-07-09T07:29:40.458Z,17.61
2018-07-09T07:32:09.996Z,17.51
2018-07-09T07:34:39.618Z,17.59
2018-07-09T07:37:09.029Z,17.59
2018-07-09T07:39:38.808Z,17.84
2018-07-09T07:42:08.313Z,17.78
2018-07-09T07:44:37.848Z,18.07
2018-07-09T07:47:07.300Z,18.20
2018-07-09T07:49:36.906Z,18.30
2018-07-09T07:52:07.468Z,18.39
2018-07-09T07:54:36.960Z,18.39
2018-07-09T07:57:06.979Z,18.45
2018-07-09T07:59:36.475Z,18.42
2018-07-09T08:02:06.054Z,18.35
2018-07-09T08:04:35.597Z,18.46
2018-07-09T08:07:05.034Z,18.61
2018-07-09T08:09:34.591Z,18.66
2018-07-09T08:12:59.660Z,18.63
2018-07-09T08:14:33.521Z,18.66
2018-07-09T08:17:03.548Z,18.79
2018-07-09T08:19:33.097Z,18.89
2018-07-09T08:22:02.265Z,19.15
2018-07-09T08:24:31.787Z,19.39
2018-07-09T08:27:01.821Z,19.63
2018-07-09T08:29:31.139Z,19.72
2018-07-09T08:32:00.487Z,19.76
2018-07-09T08:34:31.074Z,19.86
2018-07-09T08:37:00.743Z,19.94
2018-07-09T08:39:30.319Z,20.11
2018-07-09T08:41:59.850Z,19.96
2018-07-09T08:44:29.364Z,19.83
2018-07-09T08:46:58.841Z,19.70
2018-07-09T08:49:28.506Z,19.65
2018-07-09T08:51:58.375Z,19.48
2018-07-09T08:54:27.909Z,19.56
2018-07-09T08:56:57.393Z,19.61
2018-07-09T08:59:26.897Z,19.59
2018-07-09T09:01:56.333Z,19.57
2018-07-09T09:04:26.038Z,19.41
2018-07-09T09:06:55.848Z,19.25
2018-07-09T09:09:25.433Z,19.26
2018-07-09T09:11:55.044Z,19.19
2018-07-09T09:14:24.660Z,19.20
2018-07-09T09:16:54.262Z,18.95
2018-07-09T09:19:23.831Z,18.83
2018-07-09T09:21:53.451Z,18.86
2018-07-09T09:24:23.010Z,18.83
2018-07-09T09:26:52.590Z,18.73
2018-07-09T09:29:22.064Z,18.78
2018-07-09T09:31:51.575Z,18.83
2018-07-09T09:34:21.707Z,18.89
2018-07-09T09:36:52.249Z,18.98
2018-07-09T09:39:21.758Z,18.91
2018-07-09T09:41:51.186Z,18.80
2018-07-09T09:44:21.210Z,18.84
2018-07-09T09:46:50.710Z,19.04
2018-07-09T09:49:20.198Z,18.87
2018-07-09T09:51:49.698Z,18.83
2018-07-09T09:54:19.212Z,18.91
2018-07-09T09:56:48.783Z,18.93
2018-07-09T09:59:18.233Z,18.73
2018-07-09T10:01:47.706Z,18.64
2018-07-09T10:04:17.313Z,18.43
2018-07-09T10:06:46.864Z,18.74
2018-07-09T10:09:16.378Z,19.10
2018-07-09T10:11:45.932Z,19.15
2018-07-09T10:14:16.281Z,19.58
2018-07-09T10:16:45.724Z,19.81
2018-07-09T10:19:15.708Z,19.49
2018-07-09T10:21:45.262Z,19.82
2018-07-09T10:24:14.535Z,19.42
2018-07-09T10:26:44.098Z,19.04
2018-07-09T10:29:13.519Z,18.93
2018-07-09T10:31:43.734Z,18.91
2018-07-09T10:34:13.498Z,18.97
2018-07-09T10:36:42.946Z,18.86
2018-07-09T10:39:12.446Z,18.94
2018-07-09T10:41:42.115Z,19.23
2018-07-09T10:44:14.972Z,19.10
2018-07-09T10:46:44.537Z,18.95
2018-07-09T10:49:14.120Z,19.07
2018-07-09T10:51:43.559Z,18.59
2018-07-09T10:54:13.131Z,18.55
2018-07-09T10:56:42.609Z,18.49
2018-07-09T10:59:12.187Z,18.52
2018-07-09T11:01:43.498Z,18.59
2018-07-09T11:04:12.748Z,18.67
2018-07-09T11:06:43.108Z,18.67
2018-07-09T11:09:12.569Z,18.41
2018-07-09T11:11:42.314Z,18.31
2018-07-09T11:14:11.889Z,18.33
2018-07-09T11:16:41.536Z,18.51
2018-07-09T11:19:11.108Z,18.39
2018-07-09T11:21:41.317Z,18.41
2018-07-09T11:24:10.815Z,18.22
2018-07-09T11:26:40.078Z,18.19
2018-07-09T11:29:09.556Z,18.23
2018-07-09T11:31:39.101Z,18.31
2018-07-09T11:34:08.669Z,18.42
2018-07-09T11:36:39.423Z,18.57
2018-07-09T11:39:09.671Z,18.63
2018-07-09T11:41:39.247Z,18.71
2018-07-09T11:44:08.858Z,18.80
2018-07-09T11:46:38.398Z,18.80
2018-07-09T11:49:07.984Z,18.94
2018-07-09T11:51:37.505Z,19.01
2018-07-09T11:54:07.340Z,18.94
2018-07-09T11:56:36.486Z,18.42
2018-07-09T11:59:05.970Z,18.59
2018-07-09T12:01:35.605Z,18.50
2018-07-09T12:04:05.205Z,18.93
2018-07-09T12:06:34.857Z,19.14
2018-07-09T12:09:05.380Z,18.91
2018-07-09T12:11:35.444Z,18.46
2018-07-09T12:14:05.390Z,18.70
2018-07-09T12:16:34.986Z,18.58
2018-07-09T12:19:04.435Z,18.70
2018-07-09T12:21:34.109Z,18.51
2018-07-09T12:24:03.245Z,18.23
2018-07-09T12:26:32.690Z,18.47
2018-07-09T12:29:02.918Z,18.47
2018-07-09T12:31:32.558Z,18.21
2018-07-09T12:34:02.085Z,18.02
2018-07-09T12:36:31.775Z,17.78
2018-07-09T12:39:01.507Z,17.88
2018-07-09T12:41:30.989Z,18.03
2018-07-09T12:44:00.491Z,18.18
2018-07-09T12:46:31.354Z,17.90
2018-07-09T12:49:01.976Z,17.75
2018-07-09T12:51:31.450Z,17.51
2018-07-09T12:54:01.307Z,17.46
2018-07-09T12:56:30.730Z,17.28
2018-07-09T12:58:59.885Z,17.31
2018-07-09T13:01:30.100Z,17.42
2018-07-09T13:03:59.622Z,17.60
2018-07-09T13:06:29.084Z,17.58
2018-07-09T13:08:58.730Z,17.54
2018-07-09T13:11:29.260Z,17.69
2018-07-09T13:14:00.081Z,17.38
2018-07-09T13:16:30.740Z,17.47
2018-07-09T13:19:00.591Z,17.59
2018-07-09T13:21:29.864Z,17.98
2018-07-09T13:23:59.381Z,17.82
2018-07-09T13:26:28.986Z,17.77
2018-07-09T13:28:59.074Z,18.05
2018-07-09T13:31:28.973Z,17.81
2018-07-09T13:33:58.842Z,17.68
2018-07-09T13:36:28.428Z,17.69
2018-07-09T13:38:57.894Z,17.71
2018-07-09T13:41:27.530Z,17.77
2018-07-09T13:43:57.119Z,17.45
2018-07-09T13:46:26.668Z,17.45
2018-07-09T13:48:56.199Z,17.32
2018-07-09T13:51:25.573Z,17.40
2018-07-09T13:53:55.068Z,17.34
2018-07-09T13:56:24.581Z,17.20
2018-07-09T13:58:54.241Z,17.13
2018-07-09T14:01:23.809Z,17.13
2018-07-09T14:03:54.245Z,17.22
2018-07-09T14:06:24.021Z,17.30
2018-07-09T14:08:54.872Z,17.33
2018-07-09T14:11:24.349Z,17.29
2018-07-09T14:13:55.196Z,17.29
2018-07-09T14:16:24.674Z,17.38
2018-07-09T14:18:56.180Z,17.24
2018-07-09T14:21:26.332Z,17.57
2018-07-09T14:23:56.610Z,17.62
2018-07-09T14:26:26.861Z,17.75
2018-07-09T14:28:57.611Z,17.72
2018-07-09T14:31:26.933Z,17.56
2018-07-09T14:33:56.360Z,17.41
2018-07-09T14:36:25.939Z,17.36
2018-07-09T14:38:55.200Z,17.32
2018-07-09T14:41:25.048Z,17.40
2018-07-09T14:43:54.746Z,17.37
2018-07-09T14:46:24.219Z,17.36
2018-07-09T14:48:53.669Z,17.58
2018-07-09T14:51:22.867Z,17.71
2018-07-09T14:53:53.312Z,17.54
2018-07-09T14:56:23.424Z,17.64
2018-07-09T14:58:52.746Z,17.56
2018-07-09T15:01:22.785Z,17.41
2018-07-09T15:03:56.385Z,17.31
2018-07-09T15:06:26.288Z,17.02
2018-07-09T15:08:56.289Z,17.05
2018-07-09T15:11:26.639Z,17.05
2018-07-09T15:13:57.368Z,17.16
2018-07-09T15:16:27.798Z,17.12
2018-07-09T15:18:57.384Z,17.12
2018-07-09T15:21:26.862Z,17.18
2018-07-09T15:23:56.325Z,17.18
2018-07-09T15:26:25.940Z,17.11
2018-07-09T15:28:56.204Z,16.90
2018-07-09T15:31:25.700Z,16.92
2018-07-09T15:33:55.265Z,17.14
2018-07-09T15:36:24.825Z,17.20
2018-07-09T15:38:54.383Z,17.65
2018-07-09T15:41:23.902Z,17.89
2018-07-09T15:44:01.969Z,17.58
2018-07-09T15:46:31.652Z,17.53
2018-07-09T15:49:01.745Z,17.36
2018-07-09T15:51:31.178Z,17.18
2018-07-09T15:54:01.360Z,17.31
2018-07-09T15:56:30.938Z,17.03
2018-07-09T15:59:00.874Z,16.70
2018-07-09T16:01:31.346Z,16.73
2018-07-09T16:04:00.812Z,16.72
2018-07-09T16:06:30.362Z,16.61
2018-07-09T16:08:59.959Z,16.54
2018-07-09T16:11:29.449Z,16.48
2018-07-09T16:13:58.886Z,16.49
2018-07-09T16:16:28.369Z,16.79
2018-07-09T16:18:57.848Z,16.93
2018-07-09T16:21:27.792Z,16.92
2018-07-09T16:23:57.378Z,16.87
2018-07-09T16:26:27.046Z,16.93
2018-07-09T16:28:56.756Z,16.83
2018-07-09T16:31:26.989Z,16.99
2018-07-09T16:33:56.248Z,17.21
2018-07-09T16:36:25.857Z,17.02
2018-07-09T16:38:55.272Z,17.00
2018-07-09T16:41:26.353Z,17.19
2018-07-09T16:43:55.949Z,17.12
2018-07-09T16:46:25.969Z,16.96
2018-07-09T16:48:56.037Z,16.78
2018-07-09T16:51:26.757Z,16.78
2018-07-09T16:53:56.318Z,16.57
2018-07-09T16:56:26.018Z,16.57
2018-07-09T16:58:55.611Z,16.53
2018-07-09T17:01:25.278Z,16.63
2018-07-09T17:03:55.536Z,16.62
2018-07-09T17:06:25.338Z,16.61
2018-07-09T17:08:54.843Z,16.59
2018-07-09T17:11:24.474Z,16.44
2018-07-09T17:13:54.129Z,16.34
2018-07-09T17:16:24.826Z,16.20
2018-07-09T17:18:54.369Z,16.15
2018-07-09T17:21:23.744Z,16.23
2018-07-09T17:23:53.322Z,16.22
2018-07-09T17:26:22.935Z,16.33
2018-07-09T17:28:52.405Z,16.32
2018-07-09T17:31:23.259Z,16.13
2018-07-09T17:33:52.792Z,16.18
2018-07-09T17:36:22.448Z,16.11
2018-07-09T17:38:52.255Z,16.08
2018-07-09T17:41:21.769Z,16.02
2018-07-09T17:43:51.807Z,16.00
2018-07-09T17:46:21.360Z,15.96
2018-07-09T17:48:51.453Z,15.93
2018-07-09T17:51:21.032Z,16.04
2018-07-09T17:53:51.117Z,15.94
2018-07-09T17:56:21.221Z,15.89
2018-07-09T17:58:50.821Z,15.96
2018-07-09T18:01:20.345Z,15.91
2018-07-09T18:03:50.799Z,15.88
2018-07-09T18:06:20.268Z,15.84
2018-07-09T18:08:50.729Z,15.86
2018-07-09T18:11:20.074Z,15.84
2018-07-09T18:13:49.532Z,15.75
2018-07-09T18:16:19.028Z,15.81
2018-07-09T18:18:49.441Z,15.78
2018-07-09T18:21:19.069Z,15.64
2018-07-09T18:23:48.584Z,15.63
2018-07-09T18:26:18.672Z,15.59
2018-07-09T18:28:48.166Z,15.51
2018-07-09T18:31:17.668Z,15.54
2018-07-09T18:33:47.304Z,15.50
2018-07-09T18:36:16.919Z,15.50
2018-07-09T18:38:47.164Z,15.51
2018-07-09T18:41:16.613Z,15.47
2018-07-09T18:43:46.807Z,15.53
2018-07-09T18:46:16.560Z,15.43
2018-07-09T18:48:46.026Z,15.44
2018-07-09T18:51:15.616Z,15.38
2018-07-09T18:53:45.212Z,15.36
2018-07-09T18:56:14.656Z,15.29
2018-07-09T18:58:44.336Z,15.20
2018-07-09T19:01:13.889Z,15.27
2018-07-09T19:03:43.509Z,15.29
2018-07-09T19:07:28.690Z,15.28
2018-07-09T19:09:58.532Z,15.23
2018-07-09T19:12:33.303Z,15.30
2018-07-09T19:15:04.507Z,15.29
2018-07-09T19:18:18.517Z,15.21
2018-07-09T19:22:01.165Z,15.24
2018-07-09T19:24:29.509Z,15.19
2018-07-09T19:26:58.385Z,15.19
2018-07-09T19:29:26.399Z,15.21
2018-07-09T19:31:54.203Z,15.20
2018-07-09T19:34:21.975Z,15.17
2018-07-09T19:36:50.227Z,15.10
2018-07-09T19:39:18.443Z,15.09
2018-07-09T19:41:46.987Z,15.15
2018-07-09T19:44:14.678Z,15.08
2018-07-09T19:46:43.054Z,15.11
2018-07-09T19:49:11.658Z,15.09
2018-07-09T19:51:39.445Z,15.07
2018-07-09T19:54:07.241Z,15.09
2018-07-09T19:56:35.013Z,14.99
2018-07-09T19:59:02.803Z,15.01
2018-07-09T20:01:30.993Z,15.04
2018-07-09T20:03:59.613Z,15.12
2018-07-09T20:06:27.425Z,15.01
2018-07-09T20:09:00.465Z,14.91
2018-07-09T20:11:33.597Z,14.92
2018-07-09T20:14:06.701Z,15.02
2018-07-09T20:16:40.810Z,14.98
2018-07-09T20:19:09.040Z,14.99
2018-07-09T20:21:39.377Z,14.89
2018-07-09T20:24:07.167Z,14.80
2018-07-09T20:26:35.138Z,14.73
2018-07-09T20:29:02.917Z,14.61
2018-07-09T20:31:30.682Z,14.56
2018-07-09T20:33:59.315Z,14.54
2018-07-09T20:36:27.304Z,14.49
2018-07-09T20:38:55.085Z,14.48
2018-07-09T20:41:22.852Z,14.50
2018-07-09T20:43:51.259Z,14.49
2018-07-09T20:46:19.294Z,14.50
2018-07-09T20:48:47.136Z,14.54
2018-07-09T20:51:14.975Z,14.62
2018-07-09T20:53:43.633Z,14.72
2018-07-09T20:56:12.391Z,14.60
2018-07-09T20:58:40.231Z,14.61
2018-07-09T21:01:07.991Z,14.75
2018-07-09T21:03:35.935Z,14.67
2018-07-09T21:06:03.704Z,14.63
2018-07-09T21:08:31.503Z,14.53
2018-07-09T21:10:59.291Z,14.57
2018-07-09T21:13:30.735Z,14.55
2018-07-09T21:15:58.714Z,14.54
2018-07-09T21:18:26.908Z,14.55
2018-07-09T21:20:54.670Z,14.47
2018-07-09T21:23:22.445Z,14.43
2018-07-09T21:25:50.217Z,14.38
2018-07-09T21:28:18.077Z,14.47
2018-07-09T21:30:45.851Z,14.37
2018-07-09T21:33:13.610Z,14.31
2018-07-09T21:35:41.443Z,14.22
2018-07-09T21:38:09.221Z,14.06
2018-07-09T21:40:37.017Z,13.97
2018-07-09T21:43:05.078Z,13.95
2018-07-09T21:45:32.852Z,13.91
2018-07-09T21:48:10.554Z,13.85
2018-07-09T21:50:29.160Z,13.91
2018-07-09T21:52:56.942Z,13.80
2018-07-09T21:55:24.710Z,13.78
2018-07-09T21:57:52.496Z,13.73
2018-07-09T22:00:20.265Z,13.69
2018-07-09T22:02:48.220Z,13.69
2018-07-09T22:05:15.985Z,13.60
2018-07-09T22:07:44.027Z,13.59
2018-07-09T22:10:11.808Z,13.53
2018-07-09T22:12:39.892Z,13.51
2018-07-09T22:15:07.650Z,13.44
2018-07-09T22:17:35.406Z,13.45
2018-07-09T22:20:03.287Z,13.41
2018-07-09T22:22:31.391Z,13.34
2018-07-09T22:24:59.156Z,13.30
2018-07-09T22:27:26.960Z,13.22
2018-07-09T22:29:54.741Z,13.21
2018-07-09T22:32:24.156Z,13.10
2018-07-09T22:34:54.080Z,13.10
2018-07-09T22:37:23.815Z,13.04
2018-07-09T22:39:53.325Z,13.02
2018-07-09T22:42:22.771Z,13.01
2018-07-09T22:44:52.443Z,13.01
2018-07-09T22:47:22.018Z,12.91
2018-07-09T22:49:51.638Z,12.83
2018-07-09T22:52:21.090Z,12.86
2018-07-09T22:55:00.178Z,12.88
2018-07-09T22:57:29.702Z,12.92
2018-07-09T22:59:59.173Z,13.02
2018-07-09T23:02:28.821Z,13.04
2018-07-09T23:04:58.317Z,13.04
2018-07-09T23:07:27.784Z,13.08
2018-07-09T23:10:13.406Z,12.98
2018-07-09T23:16:38.163Z,13.02
2018-07-09T23:19:21.026Z,12.88
2018-07-09T23:22:06.257Z,12.95
2018-07-09T23:24:35.029Z,12.91
2018-07-09T23:27:03.009Z,12.84
2018-07-09T23:29:31.066Z,12.84
2018-07-09T23:31:58.835Z,12.91
2018-07-09T23:34:26.602Z,12.84
2018-07-09T23:36:54.562Z,12.85
2018-07-09T23:39:22.345Z,12.74
2018-07-09T23:41:51.201Z,12.69
2018-07-09T23:44:19.002Z,12.75
2018-07-09T23:46:46.911Z,12.74
2018-07-09T23:49:14.688Z,12.79
2018-07-09T23:51:42.537Z,12.85
2018-07-09T23:54:10.301Z,12.70
2018-07-09T23:59:31.704Z,12.86
